Time;durP1;ratioP1;P1;durP2;ratioP2;P2;SDS_P1;SDS_P2;PMS_P1;PMS_P2;Temp;Humidity;BMP_temperature;BMP_pressure;BME280_temperature;BME280_humidity;BME280_pressure;Samples;Min_cycle;Max_cycle;Signal;HPM_P1;HPM_P2
2023/02/13 00:00:55;;;;;;;12.80;6.32;;;;;;;3.62;100.00;100670.16;4190177;28;20072;-77
2023/02/13 00:02:56;;;;;;;13.80;5.38;;;;;;;3.58;100.00;100660.88;4186878;28;20156;-77
2023/02/13 00:04:56;;;;;;;7.72;4.63;;;;;;;3.59;100.00;100663.34;4193506;28;20040;-77
2023/02/13 00:06:56;;;;;;;8.45;4.90;;;;;;;3.56;100.00;100663.09;4191683;28;20119;-77
2023/02/13 00:08:57;;;;;;;14.48;5.00;;;;;;;3.54;100.00;100648.84;4194259;28;20101;-77
2023/02/13 00:10:57;;;;;;;8.98;4.30;;;;;;;3.48;100.00;100653.53;4190225;28;20057;-77
2023/02/13 00:12:57;;;;;;;9.25;4.80;;;;;;;3.48;100.00;100655.44;4189469;28;20558;-77
2023/02/13 00:14:59;;;;;;;9.10;5.25;;;;;;;3.46;100.00;100657.63;4189807;28;20480;-77
2023/02/13 00:16:59;;;;;;;9.60;5.40;;;;;;;3.42;100.00;100656.56;4189723;28;20053;-77
2023/02/13 00:18:59;;;;;;;5.68;3.75;;;;;;;3.43;100.00;100649.97;4194019;28;20052;-77
2023/02/13 00:21:02;;;;;;;6.90;4.05;;;;;;;3.40;100.00;100654.09;4189600;28;20482;-77
2023/02/13 00:23:03;;;;;;;8.45;4.45;;;;;;;3.38;100.00;100654.34;4189022;28;20060;-76
2023/02/13 00:25:05;;;;;;;8.23;4.50;;;;;;;3.36;100.00;100658.47;4190005;28;20215;-77
2023/02/13 00:27:05;;;;;;;7.00;4.22;;;;;;;3.31;100.00;100659.31;4195962;28;20101;-77
2023/02/13 00:29:05;;;;;;;5.05;3.45;;;;;;;3.28;100.00;100648.91;4189738;28;20098;-76
2023/02/13 00:31:09;;;;;;;7.57;4.00;;;;;;;3.31;100.00;100648.38;4190133;28;20079;-77
2023/02/13 00:33:09;;;;;;;6.22;4.00;;;;;;;3.27;100.00;100646.47;4188287;28;20128;-76
2023/02/13 00:35:10;;;;;;;7.22;3.83;;;;;;;3.25;100.00;100646.75;4188884;28;20367;-76
2023/02/13 00:37:10;;;;;;;6.85;3.42;;;;;;;3.26;100.00;100642.09;4194476;28;20124;-77
2023/02/13 00:39:11;;;;;;;6.53;3.78;;;;;;;3.29;100.00;100652.47;4197448;28;20052;-77
2023/02/13 00:41:13;;;;;;;9.40;3.38;;;;;;;3.29;100.00;100642.34;4193279;28;20052;-76
2023/02/13 00:43:13;;;;;;;6.43;3.40;;;;;;;3.33;100.00;100651.66;4192029;28;20045;-76
2023/02/13 00:45:13;;;;;;;6.53;3.53;;;;;;;3.31;100.00;100655.72;4192416;28;20040;-76
2023/02/13 00:47:13;;;;;;;7.88;3.85;;;;;;;3.28;100.00;100654.38;4193007;28;20060;-77
2023/02/13 00:49:14;;;;;;;6.20;3.58;;;;;;;3.28;100.00;100653.56;4192531;28;20041;-77
2023/02/13 00:51:14;;;;;;;7.57;3.67;;;;;;;3.24;100.00;100660.69;4195083;28;20078;-76
2023/02/13 00:53:14;;;;;;;8.68;3.45;;;;;;;3.23;100.00;100653.59;4190996;28;20135;-77
2023/02/13 00:55:15;;;;;;;7.25;3.83;;;;;;;3.21;100.00;100653.84;4192016;28;20076;-77
2023/02/13 00:57:15;;;;;;;5.68;3.50;;;;;;;3.18;100.00;100654.41;4192624;28;20053;-76
2023/02/13 00:59:16;;;;;;;5.25;3.15;;;;;;;3.15;100.00;100648.69;4195891;28;20037;-76
2023/02/13 01:01:16;;;;;;;8.57;4.10;;;;;;;3.13;100.00;100651.66;4192940;28;20775;-76
2023/02/13 01:03:18;;;;;;;5.22;3.42;;;;;;;3.14;100.00;100656.03;4192091;28;20048;-77
2023/02/13 01:05:18;;;;;;;8.80;3.78;;;;;;;3.15;100.00;100651.41;4191207;28;20045;-76
2023/02/13 01:07:18;;;;;;;5.32;3.38;;;;;;;3.12;100.00;100651.94;4191687;28;20089;-76
2023/02/13 01:09:19;;;;;;;4.70;3.28;;;;;;;3.04;100.00;100642.38;4192425;28;20044;-77
2023/02/13 01:11:19;;;;;;;6.60;3.83;;;;;;;3.09;100.00;100661.53;4192400;28;20155;-76
2023/02/13 01:13:19;;;;;;;6.72;3.90;;;;;;;3.04;100.00;100659.63;4190685;28;20674;-76
2023/02/13 01:15:20;;;;;;;6.72;3.60;;;;;;;3.04;100.00;100664.25;4192320;28;20137;-76
2023/02/13 01:17:20;;;;;;;6.72;3.85;;;;;;;3.02;100.00;100655.53;4193526;28;20071;-77
2023/02/13 01:19:21;;;;;;;6.68;3.38;;;;;;;3.02;100.00;100653.59;4192422;28;20591;-77
2023/02/13 01:21:24;;;;;;;6.80;3.80;;;;;;;3.04;100.00;100656.06;4192485;28;20068;-76
2023/02/13 01:23:28;;;;;;;7.03;3.50;;;;;;;3.06;100.00;100662.91;4197429;28;20045;-77
2023/02/13 01:25:28;;;;;;;7.53;3.83;;;;;;;3.09;100.00;100667.81;4191726;28;20105;-76
2023/02/13 01:27:29;;;;;;;5.68;3.60;;;;;;;3.09;100.00;100662.34;4192480;28;20123;-77
2023/02/13 01:29:29;;;;;;;5.93;3.97;;;;;;;3.15;100.00;100671.38;4193914;28;20492;-76
2023/02/13 01:31:29;;;;;;;6.97;3.85;;;;;;;3.09;100.00;100664.28;4192019;28;20060;-76
2023/02/13 01:33:30;;;;;;;10.18;4.40;;;;;;;3.04;100.00;100673.28;4193420;28;20056;-76
2023/02/13 01:35:30;;;;;;;6.63;4.63;;;;;;;3.00;100.00;100664.00;4192822;28;20052;-76
2023/02/13 01:37:30;;;;;;;8.07;4.32;;;;;;;2.98;100.00;100670.81;4191999;28;20369;-77
2023/02/13 01:39:31;;;;;;;6.90;3.55;;;;;;;2.96;100.00;100662.91;4192311;28;20040;-76
2023/02/13 01:41:31;;;;;;;6.25;3.92;;;;;;;2.93;100.00;100662.63;4194213;28;20123;-76
2023/02/13 01:44:26;;;;;;;6.95;4.60;;;;;;;2.90;100.00;100668.66;4191553;28;20431;-76
2023/02/13 01:46:32;;;;;;;9.90;4.70;;;;;;;2.86;100.00;100660.19;4124850;28;20058;-76
2023/02/13 01:48:32;;;;;;;8.27;4.03;;;;;;;2.86;100.00;100656.63;4172864;28;20419;-76
2023/02/13 01:50:45;;;;;;;10.45;4.80;;;;;;;2.85;100.00;100663.19;4192122;28;20044;-76
2023/02/13 01:52:48;;;;;;;;;;;;;;;2.81;100.00;100663.75;4191388;28;20049;-76
2023/02/13 01:54:48;;;;;;;7.78;4.35;;;;;;;2.77;100.00;100656.34;4191846;28;19916;-77
2023/02/13 01:56:53;;;;;;;8.00;4.82;;;;;;;2.77;100.00;100665.38;4194720;28;20052;-76
2023/02/13 01:59:00;;;;;;;8.10;4.35;;;;;;;2.77;100.00;100661.81;4192214;28;20045;-76
2023/02/13 02:01:01;;;;;;;10.50;5.38;;;;;;;2.77;100.00;100665.38;4191987;28;20044;-77
2023/02/13 02:03:17;;;;;;;8.88;4.80;;;;;;;2.73;100.00;100663.44;4190193;28;20045;-76
2023/02/13 02:05:20;;;;;;;9.40;4.45;;;;;;;2.72;100.00;100670.00;4191580;28;20072;-76
2023/02/13 02:07:24;;;;;;;10.45;4.93;;;;;;;2.69;100.00;100663.19;4191831;28;20044;-77
2023/02/13 02:09:29;;;;;;;10.10;4.82;;;;;;;2.68;100.00;100668.94;4192581;28;20044;-76
2023/02/13 02:11:51;;;;;;;6.93;4.80;;;;;;;2.64;100.00;100671.38;4189999;28;20049;-76
2023/02/13 02:13:53;;;;;;;12.07;5.13;;;;;;;2.61;100.00;100661.00;4195013;28;20494;-76
2023/02/13 02:15:53;;;;;;;11.65;5.65;;;;;;;2.60;100.00;100664.81;4192008;28;20127;-76
2023/02/13 02:17:53;;;;;;;8.82;4.45;;;;;;;2.62;100.00;100656.34;4190723;28;20104;-77
2023/02/13 02:20:09;;;;;;;10.07;4.63;;;;;;;2.63;100.00;100663.44;4194396;28;20433;-76
2023/02/13 02:22:27;;;;;;;9.90;4.72;;;;;;;2.62;100.00;100661.81;4190566;28;20151;-76
2023/02/13 02:24:40;;;;;;;9.25;5.00;;;;;;;2.61;100.00;100665.63;4190183;28;20045;-76
2023/02/13 02:27:08;;;;;;;12.15;4.70;;;;;;;2.58;100.00;100668.94;4191322;28;20170;-76
2023/02/13 02:29:30;;;;;;;10.80;5.13;;;;;;;2.56;100.00;100660.16;4191476;28;20079;-76
2023/02/13 02:31:42;;;;;;;9.77;5.15;;;;;;;2.55;100.00;100667.53;4190818;28;20061;-76
2023/02/13 02:33:52;;;;;;;13.10;5.28;;;;;;;2.54;100.00;100657.69;4190356;28;20063;-77
2023/02/13 02:36:16;;;;;;;11.05;6.05;;;;;;;2.51;100.00;100659.06;4192503;28;20055;-76
2023/02/13 02:38:24;;;;;;;10.00;4.68;;;;;;;2.51;100.00;100655.53;4190319;28;20456;-76
2023/02/13 02:40:31;;;;;;;11.85;6.22;;;;;;;2.51;100.00;100663.72;4189774;28;20123;-77
2023/02/13 02:43:03;;;;;;;15.00;5.70;;;;;;;2.49;100.00;100652.25;4190435;28;20042;-76
2023/02/13 02:45:07;;;;;;;9.55;4.97;;;;;;;2.46;100.00;100660.97;4190835;28;20392;-76
2023/02/13 02:50:00;;;;;;;14.07;5.78;;;;;;;2.41;100.00;100644.59;4191415;28;20417;-76
2023/02/13 02:52:36;;;;;;;13.18;5.40;;;;;;;2.44;100.00;100652.22;4191307;28;20042;-76
2023/02/13 02:55:06;;;;;;;13.50;5.05;;;;;;;2.42;100.00;100644.31;4157612;28;20444;-77
2023/02/13 02:57:22;;;;;;;11.68;4.82;;;;;;;2.42;100.00;100643.50;4191709;28;20520;-76
2023/02/13 03:06:56;;;;;;;16.52;6.22;;;;;;;2.43;100.00;100629.56;4192189;28;20356;-76
2023/02/13 03:13:44;;;;;;;14.13;5.85;;;;;;;2.45;100.00;100630.09;4189113;28;20099;-77
2023/02/13 03:23:33;;;;;;;10.30;5.50;;;;;;;2.50;100.00;100643.78;4187823;28;20035;-76
2023/02/13 03:25:53;;;;;;;9.45;4.25;;;;;;;2.49;100.00;100641.31;4188824;28;20610;-77
2023/02/13 03:30:46;;;;;;;13.25;5.30;;;;;;;2.47;100.00;100638.84;4181103;28;20536;-76
2023/02/13 03:33:10;;;;;;;12.00;5.55;;;;;;;2.48;100.00;100635.03;4190040;28;20043;-77
2023/02/13 03:37:54;;;;;;;10.60;5.07;;;;;;;2.46;100.00;100641.84;4190848;28;20069;-77
2023/02/13 03:40:07;;;;;;;12.00;5.40;;;;;;;2.46;100.00;100639.94;4192479;28;20126;-76
2023/02/13 03:42:15;;;;;;;12.18;4.88;;;;;;;2.43;100.00;100640.47;4189298;28;20048;-77
2023/02/13 03:44:35;;;;;;;12.57;5.65;;;;;;;2.46;100.00;100645.41;4189469;28;20119;-77
2023/02/13 03:46:41;;;;;;;10.68;5.47;;;;;;;2.48;100.00;100635.03;4192456;28;20456;-76
2023/02/13 03:51:06;;;;;;;9.13;4.45;;;;;;;2.43;100.00;100632.28;4190456;28;20047;-76
2023/02/13 03:53:13;;;;;;;10.65;5.20;;;;;;;2.42;100.00;100638.84;4189706;28;20127;-76
2023/02/13 04:00:04;;;;;;;8.95;4.70;;;;;;;2.44;100.00;100633.09;4189319;28;20056;-76
2023/02/13 04:02:19;;;;;;;9.43;4.80;;;;;;;2.46;100.00;100641.84;4190356;28;20404;-76
2023/02/13 04:04:58;;;;;;;9.60;4.90;;;;;;;2.45;100.00;100643.75;4188902;28;20280;-76
2023/02/13 04:07:03;;;;;;;8.85;4.50;;;;;;;2.45;100.00;100640.19;4213074;28;20055;-76
2023/02/13 04:09:04;;;;;;;10.65;4.57;;;;;;;2.43;100.00;100642.41;4191508;28;20101;-76
2023/02/13 04:11:13;;;;;;;10.00;5.03;;;;;;;2.39;100.00;100635.81;4190307;28;20040;-77
2023/02/13 04:13:19;;;;;;;7.93;4.60;;;;;;;2.33;100.00;100634.19;4187551;28;20492;-76
2023/02/13 04:15:23;;;;;;;10.60;5.13;;;;;;;2.36;100.00;100630.91;4195407;28;20476;-76
2023/02/13 04:17:32;;;;;;;21.52;10.00;;;;;;;2.31;100.00;100628.16;4193602;28;20113;-76
2023/02/13 04:19:33;;;;;;;19.52;8.48;;;;;;;2.32;100.00;100632.53;4194021;28;20500;-76
2023/02/13 04:21:39;;;;;;;18.52;9.07;;;;;;;2.33;100.00;100632.28;4193264;28;20094;-76
2023/02/13 04:23:39;;;;;;;15.07;7.35;;;;;;;2.33;100.00;100636.94;4192100;28;20036;-76
2023/02/13 04:25:44;;;;;;;14.98;6.70;;;;;;;2.31;100.00;100634.44;4193067;28;20413;-76
2023/02/13 04:27:44;;;;;;;12.45;6.05;;;;;;;2.34;100.00;100638.56;4193610;28;20048;-76
2023/02/13 04:29:45;;;;;;;15.10;6.72;;;;;;;2.34;100.00;100628.44;4192061;28;20040;-76
2023/02/13 04:31:45;;;;;;;13.45;5.95;;;;;;;2.34;100.00;100633.91;4196583;28;20348;-76
2023/02/13 04:33:45;;;;;;;9.52;5.45;;;;;;;2.30;100.00;100624.59;4191424;28;20434;-76
2023/02/13 04:35:46;;;;;;;11.15;6.15;;;;;;;2.23;100.00;100626.78;4193408;28;20555;-76
2023/02/13 04:37:46;;;;;;;9.00;4.43;;;;;;;2.17;100.00;100622.41;4198276;28;20130;-76
2023/02/13 04:39:46;;;;;;;10.88;4.70;;;;;;;2.09;100.00;100617.50;4194112;28;20045;-76
2023/02/13 04:41:47;;;;;;;10.35;5.40;;;;;;;2.07;100.00;100633.28;4191679;28;20453;-76
2023/02/13 04:43:47;;;;;;;7.78;4.55;;;;;;;1.99;100.00;100626.47;4190680;28;20535;-76
2023/02/13 04:45:48;;;;;;;8.77;4.40;;;;;;;1.90;100.00;100625.34;4189620;28;20362;-76
2023/02/13 04:47:51;;;;;;;10.15;4.65;;;;;;;1.85;100.00;100619.88;4193420;28;20395;-76
2023/02/13 04:49:51;;;;;;;9.38;4.35;;;;;;;1.77;100.00;100621.22;4191589;28;20538;-76
2023/02/13 04:51:51;;;;;;;9.48;4.25;;;;;;;1.72;100.00;100623.91;4192330;28;20062;-76
2023/02/13 04:53:52;;;;;;;7.18;3.92;;;;;;;1.67;100.00;100613.81;4191594;28;20095;-76
2023/02/13 04:55:52;;;;;;;5.55;3.72;;;;;;;1.65;100.00;100626.06;4194385;28;20082;-76
2023/02/13 04:57:54;;;;;;;9.40;4.40;;;;;;;1.61;100.00;100628.50;4186249;28;20042;-76
2023/02/13 04:59:54;;;;;;;8.65;3.67;;;;;;;1.55;100.00;100615.94;4183054;28;20041;-76
2023/02/13 05:01:55;;;;;;;6.25;3.95;;;;;;;1.50;100.00;100615.94;4183374;28;20500;-76
2023/02/13 05:03:55;;;;;;;4.95;3.10;;;;;;;1.46;100.00;100611.25;4192886;28;20052;-77
2023/02/13 05:05:55;;;;;;;5.55;3.65;;;;;;;1.40;100.00;100608.50;4184943;28;20151;-76
2023/02/13 05:07:55;;;;;;;4.88;3.17;;;;;;;1.38;100.00;100609.84;4201887;28;21196;-76
2023/02/13 05:09:56;;;;;;;7.97;3.90;;;;;;;1.36;100.00;100614.75;4187964;28;20087;-76
2023/02/13 05:11:56;;;;;;;6.22;3.47;;;;;;;1.25;100.00;100616.63;4191053;28;20130;-76
2023/02/13 05:13:56;;;;;;;4.30;2.90;;;;;;;1.24;100.00;100622.31;4183980;28;20059;-76
2023/02/13 05:15:57;;;;;;;5.28;3.30;;;;;;;1.15;100.00;100622.00;4183371;28;20501;-76
2023/02/13 05:17:57;;;;;;;5.13;3.05;;;;;;;1.08;100.00;100618.69;4185454;28;20068;-76
2023/02/13 05:19:58;;;;;;;8.55;4.25;;;;;;;1.00;100.00;100621.91;4192289;28;20136;-76
2023/02/13 05:24:18;;;;;;;8.18;3.97;;;;;;;0.83;100.00;100625.63;4188398;28;20530;-76
2023/02/13 05:26:18;;;;;;;7.70;4.45;;;;;;;0.78;100.00;100630.22;4186764;28;20028;-76
2023/02/13 05:30:38;;;;;;;16.92;5.80;;;;;;;0.72;100.00;100632.06;4190332;28;20051;-76
2023/02/13 05:32:41;;;;;;;11.35;5.30;;;;;;;0.62;100.00;100625.72;4185938;28;20503;-76
2023/02/13 05:34:41;;;;;;;8.00;5.10;;;;;;;0.62;100.00;100625.72;4185161;28;20052;-76
2023/02/13 05:36:42;;;;;;;9.55;5.43;;;;;;;0.63;100.00;100622.72;4186105;28;20049;-76
2023/02/13 05:38:42;;;;;;;77.03;9.50;;;;;;;0.48;100.00;100622.59;4185394;28;20391;-76
2023/02/13 05:40:42;;;;;;;9.38;5.20;;;;;;;0.37;100.00;100623.59;4191811;28;20207;-76
2023/02/13 05:42:43;;;;;;;11.02;5.28;;;;;;;0.39;100.00;100615.97;4184676;28;20404;-76
2023/02/13 05:44:43;;;;;;;7.90;4.20;;;;;;;0.45;100.00;100618.50;4190453;28;21202;-76
2023/02/13 05:46:44;;;;;;;8.93;4.72;;;;;;;0.39;100.00;100624.97;4189752;28;20062;-75
2023/02/13 05:48:44;;;;;;;9.30;4.70;;;;;;;0.31;100.00;100611.81;4196318;28;20082;-76
2023/02/13 05:50:47;;;;;;;7.82;4.68;;;;;;;0.23;100.00;100617.75;4198404;28;20052;-76
2023/02/13 05:52:47;;;;;;;6.65;3.95;;;;;;;0.17;100.00;100624.22;4189176;28;20123;-76
2023/02/13 05:54:47;;;;;;;11.60;5.28;;;;;;;0.13;100.00;100631.25;4190833;28;20087;-76
2023/02/13 05:56:48;;;;;;;12.43;5.57;;;;;;;0.14;100.00;100630.16;4088396;28;20127;-76
2023/02/13 05:58:52;;;;;;;13.13;6.05;;;;;;;0.14;100.00;100625.53;4190593;28;20069;-77
2023/02/13 06:00:56;;;;;;;11.52;5.00;;;;;;;0.15;100.00;100623.66;4193898;28;20465;-76
2023/02/13 06:02:56;;;;;;;7.97;3.80;;;;;;;0.07;100.00;100635.81;4189935;28;20106;-76
2023/02/13 06:04:57;;;;;;;9.65;4.60;;;;;;;0.06;100.00;100634.16;4192850;28;20060;-76
2023/02/13 06:06:57;;;;;;;10.23;4.72;;;;;;;0.01;100.00;100641.47;4191231;28;20158;-76
2023/02/13 06:08:57;;;;;;;10.10;5.55;;;;;;;-0.02;100.00;100642.78;4191740;28;20135;-76
2023/02/13 06:10:58;;;;;;;13.32;6.05;;;;;;;-0.02;100.00;100640.06;4191910;28;20040;-76
2023/02/13 06:12:58;;;;;;;17.52;7.13;;;;;;;-0.06;100.00;100631.59;4190878;28;20063;-76
2023/02/13 06:14:58;;;;;;;15.52;7.35;;;;;;;-0.12;100.00;100629.91;4192110;28;20572;-76
2023/02/13 06:17:00;;;;;;;21.70;10.30;;;;;;;-0.11;100.00;100638.88;4191451;28;20052;-76
2023/02/13 06:19:00;;;;;;;22.20;13.13;;;;;;;-0.14;100.00;100633.97;4191387;28;20048;-76
2023/02/13 06:21:01;;;;;;;23.60;14.25;;;;;;;-0.14;100.00;100640.22;4190466;28;20530;-76
2023/02/13 06:23:02;;;;;;;16.88;11.35;;;;;;;-0.16;100.00;100644.28;4196529;28;20075;-76
2023/02/13 06:25:03;;;;;;;21.23;15.23;;;;;;;-0.18;100.00;100639.06;4193181;28;20041;-76
2023/02/13 06:27:03;;;;;;;20.00;13.68;;;;;;;-0.17;100.00;100645.34;4192198;28;20114;-76
2023/02/13 06:29:03;;;;;;;18.08;13.07;;;;;;;-0.17;100.00;100643.44;4194258;28;20048;-76
2023/02/13 06:31:04;;;;;;;14.98;9.10;;;;;;;-0.15;100.00;100641.31;4190933;28;20105;-76
2023/02/13 06:33:04;;;;;;;9.73;6.07;;;;;;;-0.14;100.00;100642.13;4189747;28;20170;-76
2023/02/13 06:35:06;;;;;;;8.32;4.93;;;;;;;-0.13;100.00;100647.31;4190743;28;20063;-75
2023/02/13 06:37:06;;;;;;;8.07;4.95;;;;;;;-0.11;100.00;100642.44;4190496;28;20094;-76
2023/02/13 06:39:08;;;;;;;12.25;7.43;;;;;;;-0.09;100.00;100648.44;4192610;28;20457;-76
2023/02/13 06:41:08;;;;;;;16.00;8.98;;;;;;;-0.14;100.00;100648.38;4190215;28;20041;-75
2023/02/13 06:43:09;;;;;;;12.55;7.85;;;;;;;-0.15;100.00;100657.63;4189646;28;20110;-76
2023/02/13 06:45:10;;;;;;;7.50;4.95;;;;;;;-0.18;100.00;100652.69;4190745;28;20041;-76
2023/02/13 06:47:11;;;;;;;13.85;7.28;;;;;;;-0.19;100.00;100655.66;4190296;28;20043;-76
2023/02/13 06:49:11;;;;;;;12.90;7.93;;;;;;;-0.20;100.00;100652.13;4191226;28;20389;-76
2023/02/13 06:51:11;;;;;;;15.43;8.38;;;;;;;-0.18;100.00;100660.03;4190635;28;20044;-76
2023/02/13 06:53:12;;;;;;;16.10;7.97;;;;;;;-0.20;100.00;100660.28;4190936;28;20054;-76
2023/02/13 06:55:13;;;;;;;13.93;8.18;;;;;;;-0.16;100.00;100664.16;4191158;28;20135;-75
2023/02/13 06:57:14;;;;;;;19.20;9.85;;;;;;;-0.13;100.00;100668.25;4190006;28;20036;-75
2023/02/13 06:59:14;;;;;;;15.75;8.63;;;;;;;-0.11;100.00;100666.91;4195856;28;20040;-77
2023/02/13 07:01:15;;;;;;;14.75;8.10;;;;;;;-0.06;100.00;100672.44;4193537;28;20550;-76
2023/02/13 07:03:15;;;;;;;13.80;7.90;;;;;;;-0.03;100.00;100668.38;4193803;28;20117;-76
2023/02/13 07:05:16;;;;;;;11.95;6.78;;;;;;;0.04;100.00;100676.34;4190904;28;20436;-75
2023/02/13 07:07:16;;;;;;;16.60;8.32;;;;;;;0.05;100.00;100673.34;4194876;28;20106;-76
2023/02/13 07:09:17;;;;;;;22.10;10.13;;;;;;;0.06;100.00;100674.19;4190745;28;20044;-76
2023/02/13 07:11:23;;;;;;;15.45;8.10;;;;;;;0.08;100.00;100674.75;4191125;28;20059;-76
2023/02/13 07:13:23;;;;;;;13.40;6.38;;;;;;;0.12;100.00;100679.44;4190210;28;20048;-76
2023/02/13 07:15:23;;;;;;;19.25;5.28;;;;;;;0.12;100.00;100673.16;4195025;28;20079;-76
2023/02/13 07:17:25;;;;;;;22.17;4.40;;;;;;;0.14;100.00;100680.00;4193111;28;20660;-76
2023/02/13 07:19:26;;;;;;;9.93;4.10;;;;;;;0.13;100.00;100675.63;4191415;28;20041;-76
2023/02/13 07:21:26;;;;;;;9.32;3.72;;;;;;;0.12;100.00;100682.16;4191034;28;20070;-76
2023/02/13 07:23:27;;;;;;;20.13;5.35;;;;;;;0.14;100.00;100681.91;4190001;28;20041;-76
2023/02/13 07:25:28;;;;;;;9.25;4.07;;;;;;;0.14;100.00;100690.88;4192912;28;20117;-76
2023/02/13 07:27:29;;;;;;;16.08;5.40;;;;;;;0.17;100.00;100684.13;4191101;28;20056;-75
2023/02/13 07:29:29;;;;;;;15.13;6.93;;;;;;;0.16;100.00;100677.81;4191437;28;20071;-76
2023/02/13 07:31:29;;;;;;;26.42;10.00;;;;;;;0.18;100.00;100672.97;4190960;28;20048;-76
2023/02/13 07:33:31;;;;;;;15.23;7.60;;;;;;;0.23;100.00;100673.00;4189968;28;20127;-76
2023/02/13 07:35:31;;;;;;;12.10;6.75;;;;;;;0.31;100.00;100679.06;4191449;28;20074;-76
2023/02/13 07:37:32;;;;;;;12.77;6.88;;;;;;;0.36;100.00;100685.41;4190145;28;20480;-76
2023/02/13 07:39:32;;;;;;;16.27;7.05;;;;;;;0.40;100.00;100678.34;4190639;28;20438;-75
2023/02/13 07:41:32;;;;;;;14.52;6.20;;;;;;;0.43;100.00;100677.84;4191141;28;20355;-75
2023/02/13 07:43:33;;;;;;;41.28;9.55;;;;;;;0.44;100.00;100674.06;4190547;28;20493;-76
2023/02/13 07:45:33;;;;;;;20.15;10.27;;;;;;;0.44;100.00;100673.22;4192646;28;20431;-76
2023/02/13 07:47:33;;;;;;;18.38;8.60;;;;;;;0.48;100.00;100682.50;4190224;28;20088;-76
2023/02/13 07:49:35;;;;;;;16.10;7.93;;;;;;;0.51;100.00;100677.38;4190741;28;20116;-76
2023/02/13 07:51:36;;;;;;;23.35;9.80;;;;;;;0.57;100.00;100680.97;4190435;28;20041;-76
2023/02/13 07:53:36;;;;;;;21.02;8.65;;;;;;;0.61;100.00;100681.28;4189976;28;20400;-76
2023/02/13 07:55:38;;;;;;;19.52;9.20;;;;;;;0.64;100.00;100675.31;4194080;28;20089;-76
2023/02/13 07:57:38;;;;;;;13.00;7.10;;;;;;;0.66;100.00;100671.22;4191847;28;20300;-76
2023/02/13 07:59:38;;;;;;;12.68;7.45;;;;;;;0.75;100.00;100677.06;4196982;28;20372;-76
2023/02/13 08:01:39;;;;;;;13.55;6.97;;;;;;;0.79;100.00;100672.72;4190905;28;20485;-74
2023/02/13 08:03:39;;;;;;;13.40;6.20;;;;;;;0.85;100.00;100677.13;4190262;28;20315;-74
2023/02/13 08:05:40;;;;;;;22.83;8.45;;;;;;;0.89;100.00;100671.97;4191947;28;20574;-75
2023/02/13 08:07:40;;;;;;;11.80;5.75;;;;;;;0.93;100.00;100667.66;4199728;28;20056;-74
2023/02/13 08:12:03;;;;;;;13.25;5.20;;;;;;;1.01;100.00;100676.16;4190298;28;20047;-75
2023/02/13 08:14:04;;;;;;;11.20;5.15;;;;;;;1.05;100.00;100671.81;4190252;28;20129;-75
2023/02/13 08:16:04;;;;;;;14.82;6.63;;;;;;;1.12;100.00;100677.88;4191331;28;20300;-75
2023/02/13 08:18:05;;;;;;;10.30;5.25;;;;;;;1.19;100.00;100685.84;4190121;28;20514;-75
2023/02/13 08:20:07;;;;;;;11.90;5.28;;;;;;;1.22;100.00;100681.75;4190792;28;20051;-75
2023/02/13 08:22:08;;;;;;;9.70;4.85;;;;;;;1.25;100.00;100673.88;4189942;28;20447;-75
2023/02/13 08:24:08;;;;;;;10.23;4.82;;;;;;;1.29;100.00;100666.81;4190207;28;20017;-75
2023/02/13 08:26:09;;;;;;;11.82;5.88;;;;;;;1.32;100.00;100671.72;4190629;28;20029;-75
2023/02/13 08:28:10;;;;;;;10.85;5.68;;;;;;;1.34;100.00;100668.75;4190536;28;20267;-75
2023/02/13 08:30:11;;;;;;;9.30;5.50;;;;;;;1.37;100.00;100674.50;4190880;28;20415;-75
2023/02/13 08:32:12;;;;;;;17.92;11.00;;;;;;;1.40;100.00;100684.03;4191791;28;20449;-75
2023/02/13 08:34:12;;;;;;;40.50;8.93;;;;;;;1.44;100.00;100673.44;4189930;28;20044;-75
2023/02/13 08:36:13;;;;;;;13.52;8.13;;;;;;;1.48;100.00;100685.47;4190115;28;20020;-75
2023/02/13 08:38:13;;;;;;;20.33;7.40;;;;;;;1.49;100.00;100671.59;4190582;28;20046;-75
2023/02/13 08:40:13;;;;;;;23.42;7.35;;;;;;;1.47;100.00;100673.72;4193131;28;20483;-75
2023/02/13 08:42:14;;;;;;;11.27;6.10;;;;;;;1.55;100.00;100681.41;4190508;28;20063;-75
2023/02/13 08:44:14;;;;;;;10.75;6.07;;;;;;;1.65;100.00;100684.19;4190212;28;20353;-75
2023/02/13 08:46:16;;;;;;;14.30;6.10;;;;;;;1.69;100.00;100679.84;4190399;28;20025;-75
2023/02/13 08:48:16;;;;;;;11.75;6.22;;;;;;;1.74;100.00;100678.22;4190348;28;20086;-75
2023/02/13 08:50:17;;;;;;;11.77;5.93;;;;;;;1.79;100.00;100690.00;4190163;28;20056;-75
2023/02/13 08:52:17;;;;;;;12.60;5.95;;;;;;;1.85;100.00;100680.75;4190531;28;20051;-75
2023/02/13 08:54:17;;;;;;;14.85;6.97;;;;;;;2.06;100.00;100687.09;4189530;28;20107;-75
2023/02/13 08:56:17;;;;;;;11.68;5.63;;;;;;;2.12;100.00;100686.03;4189977;28;20016;-75
2023/02/13 08:58:18;;;;;;;26.05;6.65;;;;;;;2.16;100.00;100687.16;4191994;28;20021;-75
2023/02/13 09:00:19;;;;;;;10.60;5.60;;;;;;;2.12;100.00;100685.19;4192657;28;20032;-75
2023/02/13 09:02:19;;;;;;;13.48;6.05;;;;;;;2.14;100.00;100686.56;4193385;28;20063;-75
2023/02/13 09:04:19;;;;;;;13.63;6.38;;;;;;;2.11;100.00;100683.56;4192537;28;20503;-75
2023/02/13 09:06:20;;;;;;;13.00;5.55;;;;;;;2.14;100.00;100699.41;4192968;28;20597;-75
2023/02/13 09:08:21;;;;;;;14.63;7.13;;;;;;;2.11;100.00;100697.22;4193193;28;20149;-74
2023/02/13 09:10:21;;;;;;;18.38;7.70;;;;;;;2.06;100.00;100692.56;4193692;28;20076;-75
2023/02/13 09:12:21;;;;;;;31.48;11.80;;;;;;;1.98;100.00;100691.16;4192933;28;20059;-75
2023/02/13 09:14:22;;;;;;;26.63;9.38;;;;;;;2.00;100.00;100690.09;4192992;28;20122;-75
2023/02/13 09:16:22;;;;;;;16.42;7.50;;;;;;;2.04;100.00;100697.47;4192227;28;20417;-75
2023/02/13 09:18:23;;;;;;;12.35;5.65;;;;;;;2.09;100.00;100693.94;4193114;28;20040;-75
2023/02/13 09:20:23;;;;;;;13.13;6.40;;;;;;;2.14;100.00;100689.31;4192725;28;20051;-75
2023/02/13 09:22:23;;;;;;;11.32;6.20;;;;;;;2.23;100.00;100690.44;4192351;28;20503;-75
2023/02/13 09:24:24;;;;;;;15.63;5.55;;;;;;;2.33;100.00;100681.44;4192914;28;20495;-75
2023/02/13 09:26:25;;;;;;;12.30;5.95;;;;;;;2.45;100.00;100692.13;4194464;28;20041;-75
2023/02/13 09:28:25;;;;;;;10.38;5.72;;;;;;;2.47;100.00;100685.28;4193453;28;20102;-74
2023/02/13 09:30:25;;;;;;;9.00;4.80;;;;;;;2.51;100.00;100691.88;4197639;28;20502;-75
2023/02/13 09:32:26;;;;;;;10.25;4.95;;;;;;;2.49;100.00;100691.31;4192462;28;20064;-75
2023/02/13 09:34:27;;;;;;;8.68;4.63;;;;;;;2.50;100.00;100692.13;4191755;28;20139;-75
2023/02/13 09:36:27;;;;;;;8.07;4.78;;;;;;;2.47;100.00;100698.94;4192597;28;20051;-75
2023/02/13 09:38:27;;;;;;;12.70;5.40;;;;;;;2.44;100.00;100690.47;4192930;28;20032;-75
2023/02/13 09:40:36;;;;;;;11.40;6.07;;;;;;;2.44;100.00;100688.56;4192721;28;20051;-74
2023/02/13 09:42:37;;;;;;;10.68;5.40;;;;;;;2.45;100.00;100684.75;4191833;28;20060;-75
2023/02/13 09:44:43;;;;;;;10.23;4.97;;;;;;;2.48;100.00;100686.09;4192214;28;20388;-75
2023/02/13 09:46:43;;;;;;;9.25;5.07;;;;;;;2.55;100.00;100692.13;4192253;28;20500;-75
2023/02/13 09:48:48;;;;;;;10.63;4.78;;;;;;;2.57;100.00;100700.91;4192476;28;20078;-75
2023/02/13 09:50:49;;;;;;;11.18;4.80;;;;;;;2.60;100.00;100694.88;4192608;28;20063;-75
2023/02/13 09:52:52;;;;;;;10.00;4.95;;;;;;;2.62;100.00;100700.88;4194551;28;20032;-75
2023/02/13 09:54:53;;;;;;;10.73;4.90;;;;;;;2.67;100.00;100700.91;4192683;28;20269;-75
2023/02/13 09:57:01;;;;;;;8.02;4.57;;;;;;;2.67;100.00;100697.34;4191863;28;20045;-75
2023/02/13 09:59:12;;;;;;;10.55;4.95;;;;;;;2.70;100.00;100702.28;4192149;28;20502;-75
2023/02/13 10:01:40;;;;;;;12.38;5.38;;;;;;;2.69;100.00;100695.97;4192607;28;20153;-75
2023/02/13 10:03:46;;;;;;;12.65;6.10;;;;;;;2.68;100.00;100708.00;4190802;28;20048;-75
2023/02/13 10:06:00;;;;;;;25.90;13.55;;;;;;;2.72;100.00;100711.00;4198089;28;20040;-75
2023/02/13 10:08:29;;;;;;;30.00;12.45;;;;;;;2.70;100.00;100710.47;4191043;28;20044;-75
2023/02/13 10:10:36;;;;;;;17.10;8.85;;;;;;;2.68;100.00;100715.38;4191251;28;20108;-75